createdAt,value
2022-10-23T00:02:07.843Z,99.90
2022-10-23T00:06:32.292Z,99.90
2022-10-23T00:10:54.299Z,99.90
2022-10-23T00:15:19.824Z,99.90
2022-10-23T00:19:41.682Z,99.90
2022-10-23T00:24:04.867Z,99.90
2022-10-23T00:28:27.258Z,99.90
2022-10-23T00:32:49.617Z,99.90
2022-10-23T00:37:11.703Z,99.90
2022-10-23T00:41:34.470Z,99.90
2022-10-23T00:45:57.443Z,99.90
2022-10-23T00:50:21.532Z,99.90
2022-10-23T00:54:44.647Z,99.90
2022-10-23T00:59:07.092Z,99.90
2022-10-23T01:03:29.764Z,99.90
2022-10-23T01:08:02.108Z,99.90
2022-10-23T01:13:12.726Z,99.90
2022-10-23T01:17:57.270Z,99.90
2022-10-23T01:22:47.003Z,99.90
2022-10-23T01:27:33.621Z,99.90
2022-10-23T01:31:59.194Z,99.90
2022-10-23T01:36:25.314Z,99.90
2022-10-23T01:41:14.614Z,99.90
2022-10-23T01:45:41.726Z,99.90
2022-10-23T01:50:10.929Z,99.90
2022-10-23T01:54:42.242Z,99.90
2022-10-23T01:59:14.683Z,99.90
2022-10-23T02:03:39.379Z,99.90
2022-10-23T02:08:01.729Z,99.90
2022-10-23T02:12:49.625Z,99.90
2022-10-23T02:17:21.519Z,99.90
2022-10-23T02:21:54.096Z,99.90
2022-10-23T02:26:29.457Z,99.90
2022-10-23T02:30:52.372Z,99.90
2022-10-23T02:35:18.007Z,99.90
2022-10-23T02:39:40.555Z,99.90
2022-10-23T02:44:40.847Z,99.90
2022-10-23T02:49:34.631Z,99.90
2022-10-23T02:54:47.785Z,99.90
2022-10-23T02:59:31.948Z,99.90
2022-10-23T03:04:02.899Z,99.90
2022-10-23T03:08:26.400Z,99.90
2022-10-23T03:12:49.060Z,99.90
2022-10-23T03:17:11.529Z,99.90
2022-10-23T03:21:33.213Z,99.90
2022-10-23T03:25:56.892Z,99.90
2022-10-23T03:30:28.550Z,99.90
2022-10-23T03:34:50.552Z,99.90
2022-10-23T03:39:12.722Z,99.90
2022-10-23T03:43:34.854Z,99.90
2022-10-23T03:47:57.448Z,99.90
2022-10-23T03:52:19.332Z,99.90
2022-10-23T03:56:41.330Z,99.90
2022-10-23T04:01:03.810Z,99.90
2022-10-23T04:05:26.094Z,99.90
2022-10-23T04:09:50.765Z,99.90
2022-10-23T04:14:14.381Z,99.90
2022-10-23T04:18:36.171Z,99.90
2022-10-23T04:22:58.293Z,99.90
2022-10-23T04:27:20.311Z,99.90
2022-10-23T04:31:42.284Z,99.90
2022-10-23T04:36:05.276Z,99.90
2022-10-23T04:40:27.865Z,99.90
2022-10-23T04:44:49.779Z,99.90
2022-10-23T04:49:11.935Z,99.90
2022-10-23T04:53:45.409Z,99.90
2022-10-23T04:58:19.182Z,99.90
2022-10-23T05:02:41.847Z,99.90
2022-10-23T05:07:04.937Z,99.90
2022-10-23T05:11:52.728Z,99.90
2022-10-23T05:16:37.818Z,99.90
2022-10-23T05:21:26.013Z,99.90
2022-10-23T05:25:47.982Z,99.90
2022-10-23T05:30:13.332Z,99.90
2022-10-23T05:34:36.668Z,99.90
2022-10-23T05:38:59.237Z,99.90
2022-10-23T05:43:21.916Z,99.90
2022-10-23T05:47:49.280Z,99.90
2022-10-23T05:52:31.535Z,99.90
2022-10-23T05:57:12.377Z,99.90
2022-10-23T06:01:44.457Z,99.90
2022-10-23T06:06:10.943Z,99.90
2022-10-23T06:10:40.321Z,99.90
2022-10-23T06:15:05.265Z,99.90
2022-10-23T06:19:51.772Z,99.90
2022-10-23T06:24:14.027Z,99.90
2022-10-23T06:28:42.010Z,99.90
2022-10-23T06:33:05.930Z,99.90
2022-10-23T06:37:28.702Z,99.90
2022-10-23T06:42:00.224Z,99.90
2022-10-23T06:46:47.245Z,99.90
2022-10-23T06:51:29.817Z,99.90
2022-10-23T06:55:55.297Z,99.90
2022-10-23T07:00:18.080Z,99.90
2022-10-23T07:04:46.892Z,98.60
2022-10-23T07:09:14.496Z,94.30
2022-10-23T07:13:48.541Z,90.80
2022-10-23T07:18:14.722Z,85.60
2022-10-23T07:22:57.520Z,80.30
2022-10-23T07:27:23.382Z,73.70
2022-10-23T07:31:50.591Z,75.50
2022-10-23T07:36:31.810Z,77.60
2022-10-23T07:40:54.319Z,77.80
2022-10-23T07:45:16.632Z,78.30
2022-10-23T07:49:39.677Z,78.00
2022-10-23T07:54:01.782Z,78.20
2022-10-23T07:58:50.877Z,78.40
2022-10-23T08:03:13.372Z,81.90
2022-10-23T08:07:35.772Z,82.30
2022-10-23T08:11:57.879Z,80.90
2022-10-23T08:16:24.897Z,82.00
2022-10-23T08:21:04.186Z,78.30
2022-10-23T08:25:27.587Z,72.00
2022-10-23T08:29:49.859Z,68.40
2022-10-23T08:34:12.142Z,67.80
2022-10-23T08:38:35.618Z,66.80
2022-10-23T08:43:20.433Z,67.10
2022-10-23T08:48:05.100Z,66.30
2022-10-23T08:52:46.865Z,73.10
2022-10-23T08:57:16.257Z,77.40
2022-10-23T09:01:43.103Z,78.30
2022-10-23T09:06:46.202Z,77.30
2022-10-23T09:11:33.949Z,75.50
2022-10-23T09:16:23.161Z,78.10
2022-10-23T09:20:46.792Z,83.80
2022-10-23T09:25:22.627Z,87.10
2022-10-23T09:29:51.833Z,90.10
2022-10-23T09:34:23.811Z,90.50
2022-10-23T09:38:45.554Z,90.70
2022-10-23T09:43:17.811Z,91.80
2022-10-23T09:47:39.776Z,91.80
2022-10-23T09:52:10.736Z,91.00
2022-10-23T09:56:41.867Z,88.20
2022-10-23T10:01:04.642Z,86.00
2022-10-23T10:05:42.347Z,79.40
2022-10-23T10:10:15.641Z,80.80
2022-10-23T10:15:01.200Z,80.10
2022-10-23T10:20:18.873Z,77.80
2022-10-23T10:25:12.518Z,71.70
2022-10-23T10:30:00.290Z,70.80
2022-10-23T10:34:51.338Z,64.30
2022-10-23T10:39:49.875Z,62.70
2022-10-23T10:44:15.942Z,64.80
2022-10-23T10:48:57.790Z,61.90
2022-10-23T10:53:47.309Z,65.50
2022-10-23T10:58:46.222Z,70.80
2022-10-23T11:03:52.224Z,73.20
2022-10-23T11:08:28.098Z,75.90
2022-10-23T11:12:51.155Z,75.80
2022-10-23T11:17:39.307Z,76.80
2022-10-23T11:22:30.552Z,77.90
2022-10-23T11:27:10.404Z,78.60
2022-10-23T11:32:14.266Z,81.60
2022-10-23T11:36:54.354Z,81.10
2022-10-23T11:41:27.212Z,81.70
2022-10-23T11:45:50.640Z,82.30
2022-10-23T11:50:24.908Z,84.80
2022-10-23T11:54:46.867Z,86.20
2022-10-23T11:59:26.608Z,86.60
2022-10-23T12:04:02.461Z,86.90
2022-10-23T12:08:29.436Z,88.50
2022-10-23T12:13:04.350Z,88.60
2022-10-23T12:17:29.984Z,89.70
2022-10-23T12:22:00.878Z,90.60
2022-10-23T12:27:01.838Z,90.80
2022-10-23T12:31:49.224Z,91.60
2022-10-23T12:36:34.908Z,92.00
2022-10-23T12:41:25.446Z,91.50
2022-10-23T12:45:47.530Z,91.50
2022-10-23T12:50:24.964Z,91.70
2022-10-23T12:54:47.556Z,91.20
2022-10-23T12:59:17.225Z,91.20
2022-10-23T13:03:39.377Z,92.20
2022-10-23T13:08:02.606Z,92.20
2022-10-23T13:12:40.534Z,92.30
2022-10-23T13:17:10.192Z,92.30
2022-10-23T13:21:33.070Z,92.80
2022-10-23T13:25:56.904Z,92.60
2022-10-23T13:30:39.460Z,93.30
2022-10-23T13:35:20.416Z,94.00
2022-10-23T13:39:43.586Z,94.60
2022-10-23T13:44:05.638Z,95.10
2022-10-23T13:48:28.839Z,95.50
2022-10-23T13:52:50.704Z,96.30
2022-10-23T13:57:15.703Z,96.60
2022-10-23T14:01:37.801Z,96.80
2022-10-23T14:06:00.509Z,97.40
2022-10-23T14:10:25.638Z,97.40
2022-10-23T14:14:53.835Z,97.50
2022-10-23T14:19:15.588Z,97.70
2022-10-23T14:23:37.671Z,98.10
2022-10-23T14:27:59.512Z,98.70
2022-10-23T14:32:21.528Z,99.40
2022-10-23T14:36:49.853Z,99.80
2022-10-23T14:41:16.347Z,99.90
2022-10-23T14:45:37.946Z,99.90
2022-10-23T14:49:59.803Z,99.90
2022-10-23T14:54:21.894Z,99.90
2022-10-23T14:58:44.002Z,99.90
2022-10-23T15:03:06.068Z,99.90
2022-10-23T15:07:27.972Z,99.90
2022-10-23T15:11:49.994Z,99.90
2022-10-23T15:16:12.862Z,99.90
2022-10-23T15:20:36.007Z,99.90
2022-10-23T15:24:57.870Z,99.90
2022-10-23T15:29:20.507Z,99.90
2022-10-23T15:33:42.923Z,99.90
2022-10-23T15:38:05.206Z,99.90
2022-10-23T15:42:27.106Z,99.90
2022-10-23T15:46:49.593Z,99.90
2022-10-23T15:51:11.761Z,99.90
2022-10-23T15:55:33.804Z,99.90
2022-10-23T15:59:55.956Z,99.90
2022-10-23T16:04:18.319Z,99.90
2022-10-23T16:08:41.166Z,99.90
2022-10-23T16:13:02.997Z,99.90
2022-10-23T16:17:25.176Z,99.90
2022-10-23T16:21:46.862Z,99.90
2022-10-23T16:26:08.858Z,99.90
2022-10-23T16:30:31.122Z,99.90
2022-10-23T16:34:52.912Z,99.90
2022-10-23T16:39:18.769Z,99.90
2022-10-23T16:43:59.345Z,99.90
2022-10-23T16:48:35.272Z,99.90
2022-10-23T16:52:57.251Z,99.90
2022-10-23T16:57:19.326Z,99.90
2022-10-23T17:01:41.785Z,99.90
2022-10-23T17:06:11.613Z,99.90
2022-10-23T17:10:34.066Z,99.90
2022-10-23T17:14:56.208Z,99.90
2022-10-23T17:24:04.528Z,99.90
2022-10-23T17:28:26.911Z,99.90
2022-10-23T17:32:49.339Z,99.90
2022-10-23T17:37:13.332Z,99.90
2022-10-23T17:41:35.720Z,99.90
2022-10-23T17:45:57.842Z,99.90
2022-10-23T17:50:19.993Z,99.90
2022-10-23T17:54:42.309Z,99.90
2022-10-23T17:59:17.478Z,99.90
2022-10-23T18:03:40.531Z,99.90
2022-10-23T18:08:02.579Z,99.90
2022-10-23T18:12:24.584Z,99.90
2022-10-23T18:16:47.022Z,99.90
2022-10-23T18:21:09.955Z,99.90
2022-10-23T18:25:31.753Z,99.90
2022-10-23T18:29:54.157Z,99.90
2022-10-23T18:34:23.402Z,99.90
2022-10-23T18:38:45.619Z,99.90
2022-10-23T18:43:14.759Z,99.90
2022-10-23T18:47:36.911Z,99.90
2022-10-23T18:51:58.746Z,99.90
2022-10-23T18:56:24.452Z,99.90
2022-10-23T19:00:46.723Z,99.90
2022-10-23T19:05:09.245Z,99.90
2022-10-23T19:09:31.290Z,99.90
2022-10-23T19:13:54.030Z,99.90
2022-10-23T19:18:15.674Z,99.90
2022-10-23T19:22:41.072Z,99.90
2022-10-23T19:27:04.337Z,99.90
2022-10-23T19:31:27.254Z,99.90
2022-10-23T19:35:49.056Z,99.90
2022-10-23T19:40:13.348Z,99.90
2022-10-23T19:44:35.574Z,99.90
2022-10-23T19:48:57.488Z,99.90
2022-10-23T19:53:19.686Z,99.90
2022-10-23T19:57:41.663Z,99.90
2022-10-23T20:02:04.006Z,99.90
2022-10-23T20:06:34.634Z,99.90
2022-10-23T20:15:23.635Z,99.90
2022-10-23T20:19:45.279Z,99.90
2022-10-23T20:24:08.944Z,99.90
2022-10-23T20:28:31.189Z,99.90
2022-10-23T20:32:53.119Z,99.90
2022-10-23T20:37:14.560Z,99.90
2022-10-23T20:41:37.402Z,99.90
2022-10-23T20:46:07.848Z,99.90
2022-10-23T20:50:29.620Z,99.90
2022-10-23T20:54:51.565Z,99.90
2022-10-23T20:59:17.011Z,99.90
2022-10-23T21:03:39.055Z,99.90
2022-10-23T21:08:00.678Z,99.90
2022-10-23T21:12:22.730Z,99.90
2022-10-23T21:16:46.574Z,99.90
2022-10-23T21:21:12.399Z,99.90
2022-10-23T21:25:37.509Z,99.90
2022-10-23T21:29:59.391Z,99.90
2022-10-23T21:34:22.113Z,99.90
2022-10-23T21:38:46.134Z,99.90
2022-10-23T21:43:10.788Z,99.90
2022-10-23T21:47:34.298Z,99.90
2022-10-23T21:51:56.065Z,99.90
2022-10-23T21:56:36.526Z,99.90
2022-10-23T22:00:58.645Z,99.90
2022-10-23T22:05:20.297Z,99.90
2022-10-23T22:09:42.970Z,99.90
2022-10-23T22:14:04.610Z,99.90
2022-10-23T22:18:26.595Z,99.90
2022-10-23T22:22:48.701Z,99.90
2022-10-23T22:27:10.537Z,99.90
2022-10-23T22:31:35.153Z,99.90
2022-10-23T22:36:04.063Z,99.90
2022-10-23T22:40:26.097Z,99.90
2022-10-23T22:44:48.139Z,99.90
2022-10-23T22:49:10.190Z,99.90
2022-10-23T22:53:33.339Z,99.90
2022-10-23T22:57:55.328Z,99.90
2022-10-23T23:02:17.430Z,99.90
2022-10-23T23:06:39.671Z,99.90
2022-10-23T23:11:02.161Z,99.90
2022-10-23T23:15:23.995Z,99.90
2022-10-23T23:19:45.913Z,99.90
2022-10-23T23:24:07.917Z,99.90
2022-10-23T23:28:29.764Z,99.90
2022-10-23T23:32:52.898Z,99.90
2022-10-23T23:37:14.943Z,99.90
2022-10-23T23:41:37.596Z,99.90
2022-10-23T23:46:00.060Z,99.90
2022-10-23T23:50:22.253Z,99.90
2022-10-23T23:54:43.958Z,99.90
2022-10-23T23:59:06.246Z,99.90
